createdAt,value
2018-04-08T00:00:26.681Z,1000.57
2018-04-08T00:01:26.689Z,1000.58
2018-04-08T00:02:26.757Z,1000.60
2018-04-08T00:03:26.726Z,1000.58
2018-04-08T00:04:26.773Z,1000.66
2018-04-08T00:05:26.760Z,1000.67
2018-04-08T00:06:26.776Z,1000.70
2018-04-08T00:07:26.794Z,1000.71
2018-04-08T00:08:26.813Z,1000.74
2018-04-08T00:09:26.827Z,1000.76
2018-04-08T00:10:26.923Z,1000.75
2018-04-08T00:11:26.864Z,1000.78
2018-04-08T00:12:26.892Z,1000.78
2018-04-08T00:13:26.899Z,1000.83
2018-04-08T00:14:26.966Z,1000.79
2018-04-08T00:15:26.931Z,1000.86
2018-04-08T00:16:26.955Z,1000.78
2018-04-08T00:17:26.963Z,1000.75
2018-04-08T00:18:26.982Z,1000.74
2018-04-08T00:19:26.999Z,1000.74
2018-04-08T00:20:27.064Z,1000.79
2018-04-08T00:21:27.065Z,1000.80
2018-04-08T00:22:27.057Z,1000.82
2018-04-08T00:23:27.072Z,1000.80
2018-04-08T00:24:27.083Z,1000.75
2018-04-08T00:25:27.107Z,1000.73
2018-04-08T00:26:27.117Z,1000.79
2018-04-08T00:27:27.135Z,1000.73
2018-04-08T00:28:27.150Z,1000.73
2018-04-08T00:29:27.167Z,1000.70
2018-04-08T00:30:27.185Z,1000.73
2018-04-08T00:31:27.199Z,1000.68
2018-04-08T00:32:27.272Z,1000.65
2018-04-08T00:33:27.233Z,1000.67
2018-04-08T00:34:27.253Z,1000.70
2018-04-08T00:35:27.275Z,1000.70
2018-04-08T00:36:27.284Z,1000.67
2018-04-08T00:37:27.297Z,1000.67
2018-04-08T00:38:27.377Z,1000.68
2018-04-08T00:39:27.336Z,1000.70
2018-04-08T00:40:27.352Z,1000.69
2018-04-08T00:41:27.368Z,1000.71
2018-04-08T00:42:27.384Z,1000.72
2018-04-08T00:43:27.410Z,1000.73
2018-04-08T00:44:27.497Z,1000.76
2018-04-08T00:45:27.446Z,1000.76
2018-04-08T00:46:27.454Z,1000.74
2018-04-08T00:47:27.471Z,1000.82
2018-04-08T00:48:27.488Z,1000.81
2018-04-08T00:49:27.582Z,1000.76
2018-04-08T00:50:27.830Z,1000.75
2018-04-08T00:51:27.537Z,1000.72
2018-04-08T00:52:27.562Z,1000.77
2018-04-08T00:53:27.570Z,1000.76
2018-04-08T00:54:27.598Z,1000.79
2018-04-08T00:55:27.615Z,1000.81
2018-04-08T00:56:27.926Z,1000.81
2018-04-08T00:57:27.642Z,1000.81
2018-04-08T00:58:27.706Z,1000.83
2018-04-08T00:59:27.673Z,1000.85
2018-04-08T01:00:27.689Z,1000.86
2018-04-08T01:01:27.707Z,1000.86
2018-04-08T01:02:28.026Z,1000.88
2018-04-08T01:03:27.741Z,1000.90
2018-04-08T01:04:27.757Z,1000.84
2018-04-08T01:05:27.773Z,1000.88
2018-04-08T01:06:27.854Z,1000.86
2018-04-08T01:07:27.816Z,1000.88
2018-04-08T01:08:28.128Z,1000.92
2018-04-08T01:09:27.842Z,1000.84
2018-04-08T01:10:27.866Z,1000.79
2018-04-08T01:11:27.878Z,1000.80
2018-04-08T01:12:27.902Z,1000.77
2018-04-08T01:13:27.908Z,1000.74
2018-04-08T01:14:28.236Z,1000.76
2018-04-08T01:15:27.943Z,1000.73
2018-04-08T01:16:27.958Z,1000.72
2018-04-08T01:17:27.976Z,1000.74
2018-04-08T01:18:28.006Z,1000.75
2018-04-08T01:19:28.011Z,1000.75
2018-04-08T01:20:28.327Z,1000.76
2018-04-08T01:21:28.053Z,1000.76
2018-04-08T01:22:28.068Z,1000.71
2018-04-08T01:23:28.077Z,1000.72
2018-04-08T01:24:28.102Z,1000.72
2018-04-08T01:25:28.112Z,1000.72
2018-04-08T01:26:28.430Z,1000.70
2018-04-08T01:27:28.147Z,1000.75
2018-04-08T01:28:28.163Z,1000.76
2018-04-08T01:29:28.181Z,1000.81
2018-04-08T01:30:28.197Z,1000.83
2018-04-08T01:31:28.220Z,1000.83
2018-04-08T01:32:28.280Z,1000.84
2018-04-08T01:33:28.251Z,1000.84
2018-04-08T01:34:28.260Z,1000.81
2018-04-08T01:35:28.281Z,1000.85
2018-04-08T01:36:28.296Z,1000.84
2018-04-08T01:37:28.314Z,1000.83
2018-04-08T01:38:28.381Z,1000.84
2018-04-08T01:39:28.347Z,1000.84
2018-04-08T01:40:28.361Z,1000.80
2018-04-08T01:41:28.389Z,1000.81
2018-04-08T01:42:28.395Z,1000.80
2018-04-08T01:43:28.432Z,1000.82
2018-04-08T01:44:28.481Z,1000.80
2018-04-08T01:45:28.448Z,1000.84
2018-04-08T01:46:28.493Z,1000.84
2018-04-08T01:47:28.481Z,1000.83
2018-04-08T01:48:28.496Z,1000.81
2018-04-08T01:49:28.514Z,1000.85
2018-04-08T01:50:28.538Z,1000.85
2018-04-08T01:51:28.544Z,1000.85
2018-04-08T01:52:28.644Z,1000.87
2018-04-08T01:53:28.592Z,1000.83
2018-04-08T01:54:28.607Z,1000.85
2018-04-08T01:55:28.620Z,1000.84
2018-04-08T01:56:28.687Z,1000.81
2018-04-08T01:57:28.657Z,1000.84
2018-04-08T01:58:28.664Z,1000.85
2018-04-08T01:59:28.677Z,1000.85
2018-04-08T02:00:28.696Z,1000.86
2018-04-08T02:01:28.710Z,1000.92
2018-04-08T02:02:28.782Z,1000.91
2018-04-08T02:03:28.786Z,1000.94
2018-04-08T02:04:28.762Z,1000.96
2018-04-08T02:05:28.779Z,1000.96
2018-04-08T02:06:28.796Z,1000.97
2018-04-08T02:07:28.811Z,1000.98
2018-04-08T02:08:28.828Z,1000.98
2018-04-08T02:09:28.848Z,1000.98
2018-04-08T02:10:28.863Z,1000.97
2018-04-08T02:11:28.887Z,1001.00
2018-04-08T02:12:28.898Z,1000.98
2018-04-08T02:13:28.913Z,1001.01
2018-04-08T02:14:28.989Z,1001.03
2018-04-08T02:15:28.943Z,1000.99
2018-04-08T02:16:28.963Z,1001.00
2018-04-08T02:17:28.986Z,1001.03
2018-04-08T02:18:28.997Z,1001.04
2018-04-08T02:19:29.059Z,1001.02
2018-04-08T02:20:29.051Z,1001.06
2018-04-08T02:21:29.055Z,1001.03
2018-04-08T02:22:29.064Z,1001.02
2018-04-08T02:23:29.079Z,1001.03
2018-04-08T02:24:29.106Z,1001.06
2018-04-08T02:25:29.112Z,1001.10
2018-04-08T02:26:29.242Z,1001.10
2018-04-08T02:27:29.146Z,1001.08
2018-04-08T02:28:29.163Z,1001.06
2018-04-08T02:29:29.184Z,1001.13
2018-04-08T02:30:29.198Z,1001.08
2018-04-08T02:31:29.214Z,1001.13
2018-04-08T02:32:29.230Z,1001.11
2018-04-08T02:33:29.244Z,1001.09
2018-04-08T02:34:29.263Z,1001.07
2018-04-08T02:35:29.280Z,1001.10
2018-04-08T02:36:29.297Z,1001.11
2018-04-08T02:37:29.324Z,1001.11
2018-04-08T02:38:29.378Z,1001.11
2018-04-08T02:39:29.349Z,1001.10
2018-04-08T02:40:29.363Z,1001.12
2018-04-08T02:41:29.381Z,1001.10
2018-04-08T02:42:29.395Z,1001.12
2018-04-08T02:43:29.417Z,1001.09
2018-04-08T02:44:29.436Z,1001.13
2018-04-08T02:45:29.452Z,1001.19
2018-04-08T02:46:29.464Z,1001.16
2018-04-08T02:47:29.487Z,1001.14
2018-04-08T02:48:29.498Z,1001.13
2018-04-08T02:49:29.514Z,1001.14
2018-04-08T02:50:29.582Z,1001.14
2018-04-08T02:51:29.547Z,1001.11
2018-04-08T02:52:29.574Z,1001.13
2018-04-08T02:53:29.589Z,1001.15
2018-04-08T02:54:29.654Z,1001.14
2018-04-08T02:55:29.616Z,1001.15
2018-04-08T02:56:29.683Z,1001.14
2018-04-08T02:57:29.657Z,1001.14
2018-04-08T02:58:29.674Z,1001.15
2018-04-08T02:59:29.692Z,1001.17
2018-04-08T03:00:29.699Z,1001.18
2018-04-08T03:01:29.712Z,1001.19
2018-04-08T03:03:37.421Z,1001.25
2018-04-08T03:04:29.766Z,1001.23
2018-04-08T03:05:29.779Z,1001.26
2018-04-08T03:06:29.805Z,1001.25
2018-04-08T03:07:29.814Z,1001.28
2018-04-08T03:08:29.837Z,1001.26
2018-04-08T03:09:29.900Z,1001.29
2018-04-08T03:10:29.872Z,1001.27
2018-04-08T03:11:29.894Z,1001.29
2018-04-08T03:12:29.909Z,1001.27
2018-04-08T03:13:29.922Z,1001.29
2018-04-08T03:14:29.934Z,1001.25
2018-04-08T03:15:29.949Z,1001.27
2018-04-08T03:16:29.969Z,1001.26
2018-04-08T03:17:30.065Z,1001.28
2018-04-08T03:18:29.998Z,1001.32
2018-04-08T03:19:30.019Z,1001.34
2018-04-08T03:20:30.034Z,1001.28
2018-04-08T03:21:30.058Z,1001.34
2018-04-08T03:22:30.070Z,1001.34
2018-04-08T03:23:30.085Z,1001.33
2018-04-08T03:24:30.101Z,1001.35
2018-04-08T03:25:30.125Z,1001.36
2018-04-08T03:26:30.138Z,1001.34
2018-04-08T03:27:30.152Z,1001.33
2018-04-08T03:28:30.170Z,1001.35
2018-04-08T03:29:30.185Z,1001.33
2018-04-08T03:30:30.211Z,1001.36
2018-04-08T03:31:30.220Z,1001.29
2018-04-08T03:32:30.291Z,1001.34
2018-04-08T03:33:30.253Z,1001.32
2018-04-08T03:34:30.308Z,1001.36
2018-04-08T03:35:30.283Z,1001.33
2018-04-08T03:36:30.303Z,1001.36
2018-04-08T03:37:30.318Z,1001.38
2018-04-08T03:38:30.335Z,1001.37
2018-04-08T03:39:30.355Z,1001.36
2018-04-08T03:40:30.383Z,1001.35
2018-04-08T03:41:30.402Z,1001.36
2018-04-08T03:42:30.406Z,1001.37
2018-04-08T03:43:30.441Z,1001.36
2018-04-08T03:44:30.440Z,1001.36
2018-04-08T03:45:30.455Z,1001.38
2018-04-08T03:46:30.480Z,1001.35
2018-04-08T03:47:30.491Z,1001.39
2018-04-08T03:48:30.512Z,1001.38
2018-04-08T03:49:30.534Z,1001.40
2018-04-08T03:50:30.550Z,1001.40
2018-04-08T03:51:30.611Z,1001.42
2018-04-08T03:52:30.573Z,1001.41
2018-04-08T03:53:30.589Z,1001.45
2018-04-08T03:54:30.606Z,1001.45
2018-04-08T03:55:30.625Z,1001.43
2018-04-08T03:56:30.649Z,1001.47
2018-04-08T03:57:30.659Z,1001.41
2018-04-08T03:58:30.677Z,1001.40
2018-04-08T03:59:30.690Z,1001.47
2018-04-08T04:00:30.710Z,1001.47
2018-04-08T04:01:30.725Z,1001.44
2018-04-08T04:02:30.782Z,1001.43
2018-04-08T04:03:30.761Z,1001.49
2018-04-08T04:04:30.780Z,1001.46
2018-04-08T04:05:30.798Z,1001.52
2018-04-08T04:06:30.809Z,1001.53
2018-04-08T04:07:30.826Z,1001.55
2018-04-08T04:08:30.847Z,1001.55
2018-04-08T04:09:30.861Z,1001.59
2018-04-08T04:10:30.880Z,1001.58
2018-04-08T04:11:30.900Z,1001.57
2018-04-08T04:12:30.923Z,1001.58
2018-04-08T04:13:30.933Z,1001.57
2018-04-08T04:14:30.954Z,1001.59
2018-04-08T04:15:30.965Z,1001.60
2018-04-08T04:16:30.982Z,1001.58
2018-04-08T04:17:31.009Z,1001.61
2018-04-08T04:18:31.015Z,1001.63
2018-04-08T04:19:31.033Z,1001.63
2018-04-08T04:20:31.051Z,1001.62
2018-04-08T04:21:31.077Z,1001.62
2018-04-08T04:22:31.084Z,1001.65
2018-04-08T04:23:31.099Z,1001.65
2018-04-08T04:24:31.115Z,1001.64
2018-04-08T04:25:31.140Z,1001.65
2018-04-08T04:26:31.158Z,1001.68
2018-04-08T04:27:31.168Z,1001.68
2018-04-08T04:28:31.190Z,1001.71
2018-04-08T04:29:31.200Z,1001.70
2018-04-08T04:30:31.263Z,1001.74
2018-04-08T04:31:31.238Z,1001.75
2018-04-08T04:32:31.260Z,1001.76
2018-04-08T04:33:31.268Z,1001.75
2018-04-08T04:34:31.289Z,1001.76
2018-04-08T04:35:31.303Z,1001.83
2018-04-08T04:36:31.391Z,1001.82
2018-04-08T04:37:31.336Z,1001.83
2018-04-08T04:38:31.361Z,1001.79
2018-04-08T04:39:31.373Z,1001.77
2018-04-08T04:40:31.391Z,1001.81
2018-04-08T04:41:31.415Z,1001.79
2018-04-08T04:42:31.422Z,1001.78
2018-04-08T04:43:31.440Z,1001.79
2018-04-08T04:44:31.468Z,1001.80
2018-04-08T04:45:31.480Z,1001.80
2018-04-08T04:46:31.491Z,1001.81
2018-04-08T04:47:31.596Z,1001.79
2018-04-08T04:48:31.528Z,1001.82
2018-04-08T04:49:31.549Z,1001.87
2018-04-08T04:50:31.559Z,1001.88
2018-04-08T04:51:31.583Z,1001.86
2018-04-08T04:52:31.591Z,1001.88
2018-04-08T04:53:31.615Z,1001.88
2018-04-08T04:54:31.627Z,1001.87
2018-04-08T04:55:31.642Z,1001.84
2018-04-08T04:56:31.661Z,1001.87
2018-04-08T04:57:31.680Z,1001.90
2018-04-08T04:58:31.702Z,1001.86
2018-04-08T04:59:31.710Z,1001.93
2018-04-08T05:00:31.727Z,1001.90
2018-04-08T05:01:31.744Z,1001.95
2018-04-08T05:02:31.770Z,1001.94
2018-04-08T05:03:31.779Z,1001.96
2018-04-08T05:04:31.876Z,1001.95
2018-04-08T05:05:31.808Z,1001.90
2018-04-08T05:06:31.838Z,1001.99
2018-04-08T05:07:31.852Z,1001.96
2018-04-08T05:08:31.865Z,1001.94
2018-04-08T05:09:31.879Z,1001.98
2018-04-08T05:10:31.896Z,1001.97
2018-04-08T05:11:31.911Z,1001.93
2018-04-08T05:12:31.947Z,1001.99
2018-04-08T05:13:31.973Z,1001.93
2018-04-08T05:14:31.961Z,1001.97
2018-04-08T05:15:31.977Z,1001.94
2018-04-08T05:16:31.994Z,1001.95
2018-04-08T05:17:32.015Z,1001.96
2018-04-08T05:18:32.033Z,1001.98
2018-04-08T05:19:32.046Z,1001.95
2018-04-08T05:20:32.064Z,1002.00
2018-04-08T05:21:32.121Z,1001.98
2018-04-08T05:22:32.100Z,1001.99
2018-04-08T05:23:32.116Z,1002.00
2018-04-08T05:24:32.132Z,1002.01
2018-04-08T05:25:32.148Z,1002.01
2018-04-08T05:26:32.166Z,1002.02
2018-04-08T05:27:32.193Z,1002.02
2018-04-08T05:28:32.203Z,1002.06
2018-04-08T05:29:32.219Z,1002.05
2018-04-08T05:30:32.234Z,1002.05
2018-04-08T05:31:32.262Z,1002.06
2018-04-08T05:32:32.292Z,1002.03
2018-04-08T05:33:32.285Z,1002.05
2018-04-08T05:34:32.303Z,1002.06
2018-04-08T05:35:32.320Z,1002.08
2018-04-08T05:36:32.334Z,1002.05
2018-04-08T05:37:32.372Z,1002.09
2018-04-08T05:38:32.374Z,1002.09
2018-04-08T05:39:32.400Z,1002.11
2018-04-08T05:40:32.414Z,1002.08
2018-04-08T05:41:32.422Z,1002.11
2018-04-08T05:42:32.451Z,1002.11
2018-04-08T05:43:32.465Z,1002.13
2018-04-08T05:44:32.531Z,1002.15
2018-04-08T05:45:32.488Z,1002.13
2018-04-08T05:46:32.509Z,1002.18
2018-04-08T05:47:32.529Z,1002.17
2018-04-08T05:48:32.541Z,1002.21
2018-04-08T05:49:32.566Z,1002.21
2018-04-08T05:50:32.618Z,1002.21
2018-04-08T05:51:32.589Z,1002.23
2018-04-08T05:52:32.608Z,1002.20
2018-04-08T05:53:32.622Z,1002.20
2018-04-08T05:54:32.641Z,1002.25
2018-04-08T05:55:32.664Z,1002.24
2018-04-08T05:56:32.674Z,1002.26
2018-04-08T05:57:32.700Z,1002.24
2018-04-08T05:58:32.707Z,1002.28
2018-04-08T05:59:32.723Z,1002.26
2018-04-08T06:00:32.738Z,1002.30
2018-04-08T06:01:32.772Z,1002.32
2018-04-08T06:02:32.782Z,1002.31
2018-04-08T06:03:32.792Z,1002.29
2018-04-08T06:04:32.804Z,1002.28
2018-04-08T06:05:32.834Z,1002.28
2018-04-08T06:06:32.839Z,1002.27
2018-04-08T06:07:32.859Z,1002.29
2018-04-08T06:08:32.878Z,1002.29
2018-04-08T06:09:32.891Z,1002.36
2018-04-08T06:10:32.919Z,1002.32
2018-04-08T06:11:32.932Z,1002.38
2018-04-08T06:12:32.942Z,1002.34
2018-04-08T06:13:33.017Z,1002.35
2018-04-08T06:14:32.989Z,1002.35
2018-04-08T06:15:33.000Z,1002.36
2018-04-08T06:16:33.008Z,1002.36
2018-04-08T06:17:33.037Z,1002.40
2018-04-08T06:18:33.041Z,1002.39
2018-04-08T06:19:33.058Z,1002.43
2018-04-08T06:20:33.084Z,1002.52
2018-04-08T06:21:33.095Z,1002.55
2018-04-08T06:22:33.110Z,1002.52
2018-04-08T06:23:33.129Z,1002.57
2018-04-08T06:24:33.142Z,1002.61
2018-04-08T06:25:33.180Z,1002.63
2018-04-08T06:26:33.177Z,1002.65
2018-04-08T06:27:33.194Z,1002.66
2018-04-08T06:28:33.213Z,1002.69
2018-04-08T06:29:33.227Z,1002.71
2018-04-08T06:30:33.242Z,1002.72
2018-04-08T06:31:33.259Z,1002.75
2018-04-08T06:32:33.280Z,1002.79
2018-04-08T06:33:33.298Z,1002.77
2018-04-08T06:34:33.318Z,1002.77
2018-04-08T06:35:33.331Z,1002.80
2018-04-08T06:36:33.380Z,1002.82
2018-04-08T06:37:33.362Z,1002.85
2018-04-08T06:38:33.386Z,1002.88
2018-04-08T06:39:33.395Z,1002.90
2018-04-08T06:40:33.410Z,1002.91
2018-04-08T06:41:33.425Z,1002.93
2018-04-08T06:42:33.516Z,1002.97
2018-04-08T06:43:33.505Z,1002.99
2018-04-08T06:44:33.494Z,1002.96
2018-04-08T06:45:33.495Z,1002.93
2018-04-08T06:46:33.510Z,1002.97
2018-04-08T06:47:33.528Z,1002.98
2018-04-08T06:48:33.546Z,1002.97
2018-04-08T06:49:33.573Z,1003.01
2018-04-08T06:50:33.579Z,1002.99
2018-04-08T06:51:33.604Z,1002.99
2018-04-08T06:52:33.626Z,1002.98
2018-04-08T06:53:33.629Z,1003.04
2018-04-08T06:54:33.648Z,1003.05
2018-04-08T06:55:33.701Z,1003.01
2018-04-08T06:56:33.682Z,1003.05
2018-04-08T06:57:33.708Z,1003.06
2018-04-08T06:58:33.723Z,1003.04
2018-04-08T06:59:33.765Z,1003.10
2018-04-08T07:00:33.750Z,1003.08
2018-04-08T07:01:33.767Z,1003.07
2018-04-08T07:02:33.788Z,1003.11
2018-04-08T07:03:33.799Z,1003.11
2018-04-08T07:04:33.828Z,1003.13
2018-04-08T07:05:33.879Z,1003.14
2018-04-08T07:06:33.862Z,1003.15
2018-04-08T07:07:33.878Z,1003.18
2018-04-08T07:08:33.888Z,1003.13
2018-04-08T07:09:33.953Z,1003.16
2018-04-08T07:10:33.921Z,1003.16
2018-04-08T07:11:33.984Z,1003.14
2018-04-08T07:12:33.954Z,1003.21
2018-04-08T07:13:33.974Z,1003.28
2018-04-08T07:14:33.988Z,1003.26
2018-04-08T07:15:34.008Z,1003.30
2018-04-08T07:16:34.028Z,1003.29
2018-04-08T07:17:34.045Z,1003.32
2018-04-08T07:18:34.081Z,1003.36
2018-04-08T07:19:34.087Z,1003.35
2018-04-08T07:20:34.107Z,1003.33
2018-04-08T07:21:34.114Z,1003.35
2018-04-08T07:22:34.140Z,1003.35
2018-04-08T07:23:34.156Z,1003.33
2018-04-08T07:24:34.301Z,1003.37
2018-04-08T07:25:34.183Z,1003.36
2018-04-08T07:26:34.198Z,1003.34
2018-04-08T07:27:34.224Z,1003.35
2018-04-08T07:28:34.326Z,1003.35
2018-04-08T07:29:34.249Z,1003.35
2018-04-08T07:30:34.281Z,1003.38
2018-04-08T07:31:34.289Z,1003.34
2018-04-08T07:32:34.352Z,1003.35
2018-04-08T07:33:34.323Z,1003.33
2018-04-08T07:34:34.425Z,1003.42
2018-04-08T07:35:34.357Z,1003.40
2018-04-08T07:36:34.385Z,1003.39
2018-04-08T07:37:34.393Z,1003.43
2018-04-08T07:38:34.413Z,1003.45
2018-04-08T07:39:34.430Z,1003.44
2018-04-08T07:40:34.457Z,1003.45
2018-04-08T07:41:34.466Z,1003.49
2018-04-08T07:42:34.494Z,1003.43
2018-04-08T07:43:34.500Z,1003.49
2018-04-08T07:44:34.517Z,1003.46
2018-04-08T07:45:34.532Z,1003.48
2018-04-08T07:46:34.565Z,1003.46
2018-04-08T07:47:34.584Z,1003.49
2018-04-08T07:48:34.590Z,1003.47
2018-04-08T07:49:34.619Z,1003.49
2018-04-08T07:50:34.638Z,1003.51
2018-04-08T07:51:34.680Z,1003.49
2018-04-08T07:52:34.662Z,1003.50
2018-04-08T07:53:34.693Z,1003.50
2018-04-08T07:54:34.701Z,1003.47
2018-04-08T07:55:34.717Z,1003.50
2018-04-08T07:56:34.746Z,1003.50
2018-04-08T07:57:34.755Z,1003.51
2018-04-08T07:58:34.775Z,1003.56
2018-04-08T07:59:34.792Z,1003.57
2018-04-08T08:00:34.816Z,1003.57
2018-04-08T08:01:34.830Z,1003.54
2018-04-08T08:02:34.853Z,1003.53
2018-04-08T08:03:34.871Z,1003.49
2018-04-08T08:04:34.899Z,1003.51
2018-04-08T08:05:34.907Z,1003.56
2018-04-08T08:06:34.934Z,1003.50
2018-04-08T08:07:34.946Z,1003.53
2018-04-08T08:08:34.966Z,1003.55
2018-04-08T08:09:34.995Z,1003.56
2018-04-08T08:10:35.008Z,1003.57
2018-04-08T08:11:35.032Z,1003.59
2018-04-08T08:12:35.042Z,1003.60
2018-04-08T08:13:35.118Z,1003.66
2018-04-08T08:14:35.083Z,1003.63
2018-04-08T08:15:35.102Z,1003.65
2018-04-08T08:16:35.132Z,1003.60
2018-04-08T08:17:35.141Z,1003.59
2018-04-08T08:18:35.161Z,1003.61
2018-04-08T08:19:35.266Z,1003.63
2018-04-08T08:20:35.201Z,1003.64
2018-04-08T08:21:35.217Z,1003.66
2018-04-08T08:22:35.245Z,1003.65
2018-04-08T08:23:35.308Z,1003.67
2018-04-08T08:24:35.279Z,1003.63
2018-04-08T08:25:35.295Z,1003.64
2018-04-08T08:26:35.326Z,1003.61
2018-04-08T08:27:35.336Z,1003.65
2018-04-08T08:28:35.359Z,1003.64
2018-04-08T08:29:35.384Z,1003.73
2018-04-08T08:30:35.425Z,1003.68
2018-04-08T08:31:35.419Z,1003.67
2018-04-08T08:32:35.440Z,1003.71
2018-04-08T08:33:35.457Z,1003.72
2018-04-08T08:34:35.477Z,1003.69
2018-04-08T08:35:35.497Z,1003.70
2018-04-08T08:36:35.544Z,1003.66
2018-04-08T08:37:35.538Z,1003.66
2018-04-08T08:38:35.559Z,1003.72
2018-04-08T08:39:35.587Z,1003.65
2018-04-08T08:40:35.601Z,1003.68
2018-04-08T08:41:35.627Z,1003.78
2018-04-08T08:42:35.641Z,1003.72
2018-04-08T08:43:35.678Z,1003.75
2018-04-08T08:44:35.692Z,1003.79
2018-04-08T08:45:35.708Z,1003.79
2018-04-08T08:46:35.722Z,1003.76
2018-04-08T08:47:35.797Z,1003.76
2018-04-08T08:48:35.761Z,1003.77
2018-04-08T08:49:35.834Z,1003.76
2018-04-08T08:50:35.804Z,1003.82
2018-04-08T08:51:35.822Z,1003.82
2018-04-08T08:52:35.842Z,1003.73
2018-04-08T08:53:35.886Z,1003.78
2018-04-08T08:54:35.888Z,1003.76
2018-04-08T08:55:35.903Z,1003.81
2018-04-08T08:56:35.932Z,1003.77
2018-04-08T08:57:35.951Z,1003.78
2018-04-08T08:58:35.959Z,1003.81
2018-04-08T08:59:35.986Z,1003.84
2018-04-08T09:00:36.008Z,1003.79
2018-04-08T09:01:36.032Z,1003.76
2018-04-08T09:02:36.050Z,1003.84
2018-04-08T09:03:36.063Z,1003.84
2018-04-08T09:04:36.089Z,1003.80
2018-04-08T09:05:36.120Z,1003.87
2018-04-08T09:06:36.238Z,1003.75
2018-04-08T09:07:36.144Z,1003.78
2018-04-08T09:08:36.167Z,1003.80
2018-04-08T09:09:36.182Z,1003.83
2018-04-08T09:10:36.233Z,1003.74
2018-04-08T09:11:36.227Z,1003.78
2018-04-08T09:12:36.254Z,1003.83
2018-04-08T09:13:36.272Z,1003.89
2018-04-08T09:14:36.303Z,1003.88
2018-04-08T09:15:36.307Z,1003.83
2018-04-08T09:16:36.325Z,1003.94
2018-04-08T09:17:36.346Z,1003.98
2018-04-08T09:18:36.364Z,1003.86
2018-04-08T09:19:36.386Z,1003.88
2018-04-08T09:20:36.421Z,1003.91
2018-04-08T09:21:36.429Z,1003.98
2018-04-08T09:22:36.445Z,1003.88
2018-04-08T09:23:36.467Z,1003.92
2018-04-08T09:24:36.485Z,1004.01
2018-04-08T09:25:36.509Z,1003.95
2018-04-08T09:26:36.535Z,1003.94
2018-04-08T09:27:36.628Z,1003.89
2018-04-08T09:28:36.567Z,1003.99
2018-04-08T09:29:36.616Z,1004.00
2018-04-08T09:30:36.604Z,1003.98
2018-04-08T09:31:36.682Z,1004.04
2018-04-08T09:32:36.646Z,1003.98
2018-04-08T09:33:36.663Z,1004.09
2018-04-08T09:34:36.684Z,1004.05
2018-04-08T09:35:36.704Z,1004.03
2018-04-08T09:36:36.724Z,1004.07
2018-04-08T09:37:36.801Z,1004.05
2018-04-08T09:38:36.772Z,1004.00
2018-04-08T09:39:36.782Z,1004.02
2018-04-08T09:40:36.813Z,1004.04
2018-04-08T09:41:36.829Z,1004.12
2018-04-08T09:42:36.840Z,1004.18
2018-04-08T09:43:36.922Z,1004.09
2018-04-08T09:44:36.896Z,1004.10
2018-04-08T09:45:36.928Z,1004.11
2018-04-08T09:46:36.918Z,1004.11
2018-04-08T09:47:36.942Z,1004.09
2018-04-08T09:48:36.964Z,1004.07
2018-04-08T09:49:37.044Z,1004.20
2018-04-08T09:50:37.031Z,1004.12
2018-04-08T09:51:37.135Z,1004.18
2018-04-08T09:52:37.042Z,1004.12
2018-04-08T09:53:37.062Z,1004.09
2018-04-08T09:54:37.083Z,1004.07
2018-04-08T09:55:37.150Z,1004.03
2018-04-08T09:56:37.160Z,1004.01
2018-04-08T09:57:37.139Z,1003.96
2018-04-08T09:58:37.170Z,1003.96
2018-04-08T09:59:37.181Z,1003.93
2018-04-08T10:00:37.209Z,1003.93
2018-04-08T10:01:37.272Z,1003.98
2018-04-08T10:02:37.321Z,1003.95
2018-04-08T10:03:37.272Z,1004.00
2018-04-08T10:04:37.280Z,1004.00
2018-04-08T10:05:37.368Z,1004.06
2018-04-08T10:06:37.328Z,1004.05
2018-04-08T10:07:37.340Z,1004.04
2018-04-08T10:08:37.374Z,1004.08
2018-04-08T10:09:37.376Z,1004.04
2018-04-08T10:10:37.394Z,1004.00
2018-04-08T10:11:37.416Z,1004.06
2018-04-08T10:12:37.434Z,1003.99
2018-04-08T10:13:37.455Z,1003.94
2018-04-08T10:14:37.513Z,1003.96
2018-04-08T10:15:37.497Z,1003.96
2018-04-08T10:16:37.519Z,1003.98
2018-04-08T10:17:37.559Z,1003.91
2018-04-08T10:18:37.557Z,1003.96
2018-04-08T10:19:37.641Z,1003.92
2018-04-08T10:20:37.597Z,1003.90
2018-04-08T10:21:37.618Z,1003.89
2018-04-08T10:22:37.637Z,1003.88
2018-04-08T10:23:37.661Z,1003.90
2018-04-08T10:24:37.678Z,1003.91
2018-04-08T10:25:37.746Z,1003.86
2018-04-08T10:26:37.715Z,1003.87
2018-04-08T10:27:37.735Z,1003.91
2018-04-08T10:28:37.762Z,1003.90
2018-04-08T10:29:37.782Z,1003.93
2018-04-08T10:30:37.794Z,1003.95
2018-04-08T10:31:37.816Z,1003.90
2018-04-08T10:32:37.846Z,1003.94
2018-04-08T10:33:37.853Z,1003.98
2018-04-08T10:34:37.878Z,1004.01
2018-04-08T10:35:37.899Z,1003.99
2018-04-08T10:36:37.918Z,1004.00
2018-04-08T10:37:37.935Z,1003.98
2018-04-08T10:38:37.955Z,1003.97
2018-04-08T10:39:37.980Z,1003.94
2018-04-08T10:40:37.991Z,1003.92
2018-04-08T10:41:38.012Z,1003.93
2018-04-08T10:42:38.084Z,1003.93
2018-04-08T10:43:38.052Z,1003.92
2018-04-08T10:44:38.069Z,1003.97
2018-04-08T10:45:38.087Z,1003.95
2018-04-08T10:46:38.115Z,1003.89
2018-04-08T10:47:38.125Z,1003.86
2018-04-08T10:48:38.146Z,1003.96
2018-04-08T10:49:38.166Z,1003.89
2018-04-08T10:50:38.180Z,1003.92
2018-04-08T10:51:38.221Z,1003.90
2018-04-08T10:52:38.221Z,1003.90
2018-04-08T10:53:38.251Z,1003.87
2018-04-08T10:54:38.271Z,1003.88
2018-04-08T10:55:38.283Z,1003.92
2018-04-08T10:56:38.309Z,1003.91
2018-04-08T10:57:38.320Z,1003.92
2018-04-08T10:58:38.338Z,1003.86
2018-04-08T10:59:38.387Z,1003.84
2018-04-08T11:00:38.385Z,1003.85
2018-04-08T11:01:38.423Z,1003.77
2018-04-08T11:02:38.432Z,1003.76
2018-04-08T11:03:38.448Z,1003.61
2018-04-08T11:04:38.461Z,1003.71
2018-04-08T11:05:38.559Z,1003.65
2018-04-08T11:06:38.500Z,1003.79
2018-04-08T11:07:38.526Z,1003.76
2018-04-08T11:08:38.553Z,1003.72
2018-04-08T11:09:38.574Z,1003.73
2018-04-08T11:10:38.588Z,1003.73
2018-04-08T11:11:38.615Z,1003.73
2018-04-08T11:12:38.626Z,1003.62
2018-04-08T11:13:38.701Z,1003.56
2018-04-08T11:14:38.679Z,1003.60
2018-04-08T11:15:38.701Z,1003.46
2018-04-08T11:16:38.715Z,1003.44
2018-04-08T11:17:38.735Z,1003.43
2018-04-08T11:18:38.758Z,1003.45
2018-04-08T11:19:38.781Z,1003.35
2018-04-08T11:20:38.801Z,1003.37
2018-04-08T11:21:38.825Z,1003.41
2018-04-08T11:22:38.881Z,1003.37
2018-04-08T11:23:38.864Z,1003.41
2018-04-08T11:24:38.884Z,1003.44
2018-04-08T11:25:38.918Z,1003.34
2018-04-08T11:26:38.929Z,1003.36
2018-04-08T11:27:38.948Z,1003.39
2018-04-08T11:28:38.979Z,1003.31
2018-04-08T11:29:38.989Z,1003.37
2018-04-08T11:30:39.013Z,1003.37
2018-04-08T11:31:39.034Z,1003.38
2018-04-08T11:32:39.055Z,1003.31
2018-04-08T11:33:39.155Z,1003.40
2018-04-08T11:34:39.102Z,1003.47
2018-04-08T11:35:39.131Z,1003.37
2018-04-08T11:36:39.139Z,1003.42
2018-04-08T11:37:39.158Z,1003.48
2018-04-08T11:38:39.179Z,1003.43
2018-04-08T11:39:39.198Z,1003.49
2018-04-08T11:40:39.219Z,1003.39
2018-04-08T11:41:39.253Z,1003.42
2018-04-08T11:42:39.262Z,1003.45
2018-04-08T11:43:39.290Z,1003.48
2018-04-08T11:44:39.303Z,1003.49
2018-04-08T11:45:39.330Z,1003.45
2018-04-08T11:46:39.345Z,1003.39
2018-04-08T11:47:39.366Z,1003.35
2018-04-08T11:48:39.385Z,1003.41
2018-04-08T11:49:39.406Z,1003.42
2018-04-08T11:50:39.430Z,1003.41
2018-04-08T11:51:39.445Z,1003.44
2018-04-08T11:52:39.469Z,1003.36
2018-04-08T11:53:39.488Z,1003.33
2018-04-08T11:54:39.523Z,1003.37
2018-04-08T11:55:39.539Z,1003.34
2018-04-08T11:56:39.589Z,1003.32
2018-04-08T11:57:39.568Z,1003.27
2018-04-08T11:58:39.598Z,1003.27
2018-04-08T11:59:39.609Z,1003.21
2018-04-08T12:00:39.632Z,1003.27
2018-04-08T12:01:39.649Z,1003.21
2018-04-08T12:02:39.721Z,1003.14
2018-04-08T12:03:39.692Z,1003.08
2018-04-08T12:04:39.709Z,1003.12
2018-04-08T12:05:39.729Z,1003.12
2018-04-08T12:06:39.748Z,1003.11